sensor_id;sensor_type;location;lat;lon;timestamp;temperature;humidity
37646;DHT22;23489;49.600;6.138;2023-07-08T00:01:46;19.80;99.20
37646;DHT22;23489;49.600;6.138;2023-07-08T00:04:11;19.70;99.50
37646;DHT22;23489;49.600;6.138;2023-07-08T00:06:37;19.70;99.90
37646;DHT22;23489;49.600;6.138;2023-07-08T00:09:09;19.70;99.90
37646;DHT22;23489;49.600;6.138;2023-07-08T00:11:36;19.60;99.90
37646;DHT22;23489;49.600;6.138;2023-07-08T00:14:01;19.60;99.90
37646;DHT22;23489;49.600;6.138;2023-07-08T00:16:27;19.50;99.90
37646;DHT22;23489;49.600;6.138;2023-07-08T00:18:53;19.50;99.90
37646;DHT22;23489;49.600;6.138;2023-07-08T00:21:18;19.50;99.90
37646;DHT22;23489;49.600;6.138;2023-07-08T00:23:48;19.40;99.90
37646;DHT22;23489;49.600;6.138;2023-07-08T00:26:22;19.40;99.90
37646;DHT22;23489;49.600;6.138;2023-07-08T00:28:48;19.30;99.90
37646;DHT22;23489;49.600;6.138;2023-07-08T00:31:14;19.30;99.90
37646;DHT22;23489;49.600;6.138;2023-07-08T00:33:41;19.10;99.90
37646;DHT22;23489;49.600;6.138;2023-07-08T00:36:14;19.00;99.90
37646;DHT22;23489;49.600;6.138;2023-07-08T00:38:40;19.00;99.90
37646;DHT22;23489;49.600;6.138;2023-07-08T00:41:23;18.90;99.90
37646;DHT22;23489;49.600;6.138;2023-07-08T00:43:53;18.90;99.90
37646;DHT22;23489;49.600;6.138;2023-07-08T00:46:34;18.80;99.90
37646;DHT22;23489;49.600;6.138;2023-07-08T00:49:15;18.70;99.90
37646;DHT22;23489;49.600;6.138;2023-07-08T00:51:41;18.70;99.90
37646;DHT22;23489;49.600;6.138;2023-07-08T00:54:11;18.60;99.90
37646;DHT22;23489;49.600;6.138;2023-07-08T00:56:59;18.60;99.90
37646;DHT22;23489;49.600;6.138;2023-07-08T01:01:55;18.60;99.90
37646;DHT22;23489;49.600;6.138;2023-07-08T01:04:28;18.50;99.90
37646;DHT22;23489;49.600;6.138;2023-07-08T01:06:57;18.40;99.90
37646;DHT22;23489;49.600;6.138;2023-07-08T01:09:27;18.40;99.90
37646;DHT22;23489;49.600;6.138;2023-07-08T01:11:56;18.40;99.90
37646;DHT22;23489;49.600;6.138;2023-07-08T01:14:24;18.40;99.90
37646;DHT22;23489;49.600;6.138;2023-07-08T01:16:52;18.40;99.90
37646;DHT22;23489;49.600;6.138;2023-07-08T01:19:21;18.40;99.90
37646;DHT22;23489;49.600;6.138;2023-07-08T01:22:00;18.30;99.90
37646;DHT22;23489;49.600;6.138;2023-07-08T01:24:27;18.30;99.90
37646;DHT22;23489;49.600;6.138;2023-07-08T01:26:54;18.30;99.90
37646;DHT22;23489;49.600;6.138;2023-07-08T01:29:20;18.20;99.90
37646;DHT22;23489;49.600;6.138;2023-07-08T01:31:46;18.20;99.90
37646;DHT22;23489;49.600;6.138;2023-07-08T01:34:15;18.20;99.90
37646;DHT22;23489;49.600;6.138;2023-07-08T01:36:46;18.10;99.90
37646;DHT22;23489;49.600;6.138;2023-07-08T01:39:16;18.10;99.90
37646;DHT22;23489;49.600;6.138;2023-07-08T01:41:43;18.10;99.90
37646;DHT22;23489;49.600;6.138;2023-07-08T01:46:53;18.00;99.90
37646;DHT22;23489;49.600;6.138;2023-07-08T01:49:20;18.00;99.90
37646;DHT22;23489;49.600;6.138;2023-07-08T01:51:47;18.00;99.90
37646;DHT22;23489;49.600;6.138;2023-07-08T01:54:21;17.90;99.90
37646;DHT22;23489;49.600;6.138;2023-07-08T01:56:47;17.90;99.90
37646;DHT22;23489;49.600;6.138;2023-07-08T01:59:17;17.90;99.90
37646;DHT22;23489;49.600;6.138;2023-07-08T02:01:42;17.80;99.90
37646;DHT22;23489;49.600;6.138;2023-07-08T02:04:08;17.80;99.90
37646;DHT22;23489;49.600;6.138;2023-07-08T02:06:36;17.80;99.90
37646;DHT22;23489;49.600;6.138;2023-07-08T02:09:05;17.70;99.90
37646;DHT22;23489;49.600;6.138;2023-07-08T02:11:31;17.70;99.90
37646;DHT22;23489;49.600;6.138;2023-07-08T02:13:57;17.70;99.90
37646;DHT22;23489;49.600;6.138;2023-07-08T02:16:22;17.70;99.90
37646;DHT22;23489;49.600;6.138;2023-07-08T02:18:48;17.70;99.90
37646;DHT22;23489;49.600;6.138;2023-07-08T02:21:14;17.70;99.90
37646;DHT22;23489;49.600;6.138;2023-07-08T02:23:49;17.80;99.90
37646;DHT22;23489;49.600;6.138;2023-07-08T02:26:14;17.80;99.90
37646;DHT22;23489;49.600;6.138;2023-07-08T02:28:40;17.80;99.90
37646;DHT22;23489;49.600;6.138;2023-07-08T02:31:05;17.90;99.90
37646;DHT22;23489;49.600;6.138;2023-07-08T02:33:31;17.90;99.90
37646;DHT22;23489;49.600;6.138;2023-07-08T02:35:59;17.90;99.90
37646;DHT22;23489;49.600;6.138;2023-07-08T02:38:26;17.90;99.90
37646;DHT22;23489;49.600;6.138;2023-07-08T02:40:51;18.00;99.90
37646;DHT22;23489;49.600;6.138;2023-07-08T02:43:17;18.00;99.90
37646;DHT22;23489;49.600;6.138;2023-07-08T02:45:43;18.00;99.90
37646;DHT22;23489;49.600;6.138;2023-07-08T02:48:08;18.00;99.90
37646;DHT22;23489;49.600;6.138;2023-07-08T02:50:34;18.00;99.90
37646;DHT22;23489;49.600;6.138;2023-07-08T02:53:00;17.90;99.90
37646;DHT22;23489;49.600;6.138;2023-07-08T02:55:25;17.90;99.90
37646;DHT22;23489;49.600;6.138;2023-07-08T02:57:51;17.90;99.90
37646;DHT22;23489;49.600;6.138;2023-07-08T03:00:16;17.90;99.90
37646;DHT22;23489;49.600;6.138;2023-07-08T03:02:42;17.80;99.90
37646;DHT22;23489;49.600;6.138;2023-07-08T03:05:08;17.80;99.90
37646;DHT22;23489;49.600;6.138;2023-07-08T03:07:33;17.80;99.90
37646;DHT22;23489;49.600;6.138;2023-07-08T03:09:59;17.80;99.90
37646;DHT22;23489;49.600;6.138;2023-07-08T03:12:25;17.80;99.90
37646;DHT22;23489;49.600;6.138;2023-07-08T03:14:50;17.90;99.90
37646;DHT22;23489;49.600;6.138;2023-07-08T03:17:16;17.90;99.90
37646;DHT22;23489;49.600;6.138;2023-07-08T03:19:43;17.90;99.90
37646;DHT22;23489;49.600;6.138;2023-07-08T03:22:08;17.90;99.90
37646;DHT22;23489;49.600;6.138;2023-07-08T03:24:34;17.90;99.90
37646;DHT22;23489;49.600;6.138;2023-07-08T03:27:02;17.90;99.90
37646;DHT22;23489;49.600;6.138;2023-07-08T03:29:32;17.80;99.90
37646;DHT22;23489;49.600;6.138;2023-07-08T03:31:59;17.70;99.90
37646;DHT22;23489;49.600;6.138;2023-07-08T03:34:25;17.70;99.90
37646;DHT22;23489;49.600;6.138;2023-07-08T03:36:51;17.70;99.90
37646;DHT22;23489;49.600;6.138;2023-07-08T03:39:23;17.70;99.90
37646;DHT22;23489;49.600;6.138;2023-07-08T03:41:50;17.60;99.90
37646;DHT22;23489;49.600;6.138;2023-07-08T03:44:16;17.60;99.90
37646;DHT22;23489;49.600;6.138;2023-07-08T03:46:47;17.60;99.90
37646;DHT22;23489;49.600;6.138;2023-07-08T03:49:17;17.60;99.90
37646;DHT22;23489;49.600;6.138;2023-07-08T03:51:47;17.50;99.90
37646;DHT22;23489;49.600;6.138;2023-07-08T03:54:18;17.50;99.90
37646;DHT22;23489;49.600;6.138;2023-07-08T03:56:45;17.50;99.90
37646;DHT22;23489;49.600;6.138;2023-07-08T03:59:11;17.40;99.90
37646;DHT22;23489;49.600;6.138;2023-07-08T04:01:37;17.40;99.90
37646;DHT22;23489;49.600;6.138;2023-07-08T04:04:11;17.40;99.90
37646;DHT22;23489;49.600;6.138;2023-07-08T04:06:37;17.30;99.90
37646;DHT22;23489;49.600;6.138;2023-07-08T04:09:03;17.30;99.90
37646;DHT22;23489;49.600;6.138;2023-07-08T04:11:29;17.20;99.90
37646;DHT22;23489;49.600;6.138;2023-07-08T04:13:54;17.20;99.90
37646;DHT22;23489;49.600;6.138;2023-07-08T04:16:35;17.10;99.90
37646;DHT22;23489;49.600;6.138;2023-07-08T04:19:08;17.20;99.90
37646;DHT22;23489;49.600;6.138;2023-07-08T04:21:40;17.10;99.90
37646;DHT22;23489;49.600;6.138;2023-07-08T04:24:09;17.10;99.90
37646;DHT22;23489;49.600;6.138;2023-07-08T04:26:34;17.10;99.90
37646;DHT22;23489;49.600;6.138;2023-07-08T04:29:01;17.10;99.90
37646;DHT22;23489;49.600;6.138;2023-07-08T04:31:27;17.10;99.90
37646;DHT22;23489;49.600;6.138;2023-07-08T04:33:53;17.10;99.90
37646;DHT22;23489;49.600;6.138;2023-07-08T04:36:18;17.10;99.90
37646;DHT22;23489;49.600;6.138;2023-07-08T04:38:47;17.10;99.90
37646;DHT22;23489;49.600;6.138;2023-07-08T04:41:12;17.10;99.90
37646;DHT22;23489;49.600;6.138;2023-07-08T04:43:38;17.10;99.90
37646;DHT22;23489;49.600;6.138;2023-07-08T04:46:19;17.20;99.90
37646;DHT22;23489;49.600;6.138;2023-07-08T04:48:45;17.30;99.90
37646;DHT22;23489;49.600;6.138;2023-07-08T04:51:11;17.30;99.90
37646;DHT22;23489;49.600;6.138;2023-07-08T04:53:36;17.40;99.90
37646;DHT22;23489;49.600;6.138;2023-07-08T04:56:02;17.50;99.90
37646;DHT22;23489;49.600;6.138;2023-07-08T04:58:28;17.70;99.90
37646;DHT22;23489;49.600;6.138;2023-07-08T05:00:54;17.70;99.90
37646;DHT22;23489;49.600;6.138;2023-07-08T05:03:19;17.80;99.90
37646;DHT22;23489;49.600;6.138;2023-07-08T05:05:45;18.30;99.90
37646;DHT22;23489;49.600;6.138;2023-07-08T05:11:47;18.80;99.90
37646;DHT22;23489;49.600;6.138;2023-07-08T05:14:13;19.00;99.90
37646;DHT22;23489;49.600;6.138;2023-07-08T05:16:39;19.10;99.90
37646;DHT22;23489;49.600;6.138;2023-07-08T05:19:05;19.10;99.90
37646;DHT22;23489;49.600;6.138;2023-07-08T05:21:31;19.20;99.90
37646;DHT22;23489;49.600;6.138;2023-07-08T05:24:01;19.30;99.90
37646;DHT22;23489;49.600;6.138;2023-07-08T05:26:26;19.30;99.90
37646;DHT22;23489;49.600;6.138;2023-07-08T05:28:52;19.30;99.90
37646;DHT22;23489;49.600;6.138;2023-07-08T05:31:17;19.40;99.90
37646;DHT22;23489;49.600;6.138;2023-07-08T05:33:43;19.50;99.90
37646;DHT22;23489;49.600;6.138;2023-07-08T05:36:08;19.70;99.90
37646;DHT22;23489;49.600;6.138;2023-07-08T05:38:34;19.80;99.90
37646;DHT22;23489;49.600;6.138;2023-07-08T05:41:00;19.80;99.90
37646;DHT22;23489;49.600;6.138;2023-07-08T05:43:26;20.00;99.90
37646;DHT22;23489;49.600;6.138;2023-07-08T05:45:52;20.10;99.90
37646;DHT22;23489;49.600;6.138;2023-07-08T05:48:17;20.30;99.90
37646;DHT22;23489;49.600;6.138;2023-07-08T05:50:45;20.50;99.90
37646;DHT22;23489;49.600;6.138;2023-07-08T05:53:11;20.70;99.90
37646;DHT22;23489;49.600;6.138;2023-07-08T05:55:37;20.90;99.90
37646;DHT22;23489;49.600;6.138;2023-07-08T05:58:03;21.10;99.90
37646;DHT22;23489;49.600;6.138;2023-07-08T06:00:29;21.40;99.90
37646;DHT22;23489;49.600;6.138;2023-07-08T06:02:54;21.60;99.90
37646;DHT22;23489;49.600;6.138;2023-07-08T06:05:20;21.70;99.90
37646;DHT22;23489;49.600;6.138;2023-07-08T06:07:46;21.80;99.90
37646;DHT22;23489;49.600;6.138;2023-07-08T06:10:11;22.00;99.90
37646;DHT22;23489;49.600;6.138;2023-07-08T06:12:37;22.20;99.90
37646;DHT22;23489;49.600;6.138;2023-07-08T06:15:03;22.60;99.90
37646;DHT22;23489;49.600;6.138;2023-07-08T06:17:28;23.00;99.90
37646;DHT22;23489;49.600;6.138;2023-07-08T06:19:54;23.80;99.90
37646;DHT22;23489;49.600;6.138;2023-07-08T06:22:20;25.10;99.90
37646;DHT22;23489;49.600;6.138;2023-07-08T06:24:45;26.50;96.90
37646;DHT22;23489;49.600;6.138;2023-07-08T06:27:13;27.80;94.20
37646;DHT22;23489;49.600;6.138;2023-07-08T06:29:39;29.30;87.60
37646;DHT22;23489;49.600;6.138;2023-07-08T06:32:05;30.40;80.00
37646;DHT22;23489;49.600;6.138;2023-07-08T06:34:31;30.80;74.20
37646;DHT22;23489;49.600;6.138;2023-07-08T06:36:56;31.70;70.70
37646;DHT22;23489;49.600;6.138;2023-07-08T06:39:22;32.20;67.50
37646;DHT22;23489;49.600;6.138;2023-07-08T06:41:47;32.50;64.10
37646;DHT22;23489;49.600;6.138;2023-07-08T06:44:15;32.70;64.00
37646;DHT22;23489;49.600;6.138;2023-07-08T06:46:40;33.60;61.80
37646;DHT22;23489;49.600;6.138;2023-07-08T06:49:06;33.90;59.30
37646;DHT22;23489;49.600;6.138;2023-07-08T06:51:35;32.90;59.90
37646;DHT22;23489;49.600;6.138;2023-07-08T06:54:01;33.20;59.60
37646;DHT22;23489;49.600;6.138;2023-07-08T06:56:40;33.70;58.10
37646;DHT22;23489;49.600;6.138;2023-07-08T06:59:07;33.70;57.70
37646;DHT22;23489;49.600;6.138;2023-07-08T07:01:32;32.50;58.80
37646;DHT22;23489;49.600;6.138;2023-07-08T07:03:58;32.80;59.10
37646;DHT22;23489;49.600;6.138;2023-07-08T07:06:25;33.20;57.60
37646;DHT22;23489;49.600;6.138;2023-07-08T07:08:50;34.20;56.50
37646;DHT22;23489;49.600;6.138;2023-07-08T07:11:16;34.90;55.30
37646;DHT22;23489;49.600;6.138;2023-07-08T07:13:41;35.30;54.50
37646;DHT22;23489;49.600;6.138;2023-07-08T07:16:07;36.20;53.00
37646;DHT22;23489;49.600;6.138;2023-07-08T07:18:32;35.80;52.40
37646;DHT22;23489;49.600;6.138;2023-07-08T07:20:58;35.90;51.80
37646;DHT22;23489;49.600;6.138;2023-07-08T07:23:24;35.70;51.50
37646;DHT22;23489;49.600;6.138;2023-07-08T07:25:50;35.70;51.20
37646;DHT22;23489;49.600;6.138;2023-07-08T07:28:16;35.50;51.70
37646;DHT22;23489;49.600;6.138;2023-07-08T07:30:45;36.10;50.70
37646;DHT22;23489;49.600;6.138;2023-07-08T07:33:11;36.70;50.10
37646;DHT22;23489;49.600;6.138;2023-07-08T07:35:41;36.50;49.90
37646;DHT22;23489;49.600;6.138;2023-07-08T07:38:07;36.70;49.10
37646;DHT22;23489;49.600;6.138;2023-07-08T07:40:32;36.30;49.60
37646;DHT22;23489;49.600;6.138;2023-07-08T07:42:58;35.50;49.60
37646;DHT22;23489;49.600;6.138;2023-07-08T07:45:23;35.70;50.20
37646;DHT22;23489;49.600;6.138;2023-07-08T07:47:49;35.90;49.80
37646;DHT22;23489;49.600;6.138;2023-07-08T07:50:14;36.50;49.20
37646;DHT22;23489;49.600;6.138;2023-07-08T07:52:40;35.50;49.50
37646;DHT22;23489;49.600;6.138;2023-07-08T07:55:07;35.60;50.10
37646;DHT22;23489;49.600;6.138;2023-07-08T07:57:32;36.20;49.90
37646;DHT22;23489;49.600;6.138;2023-07-08T07:59:58;37.00;49.00
37646;DHT22;23489;49.600;6.138;2023-07-08T08:02:23;36.80;49.00
37646;DHT22;23489;49.600;6.138;2023-07-08T08:04:49;37.40;48.50
37646;DHT22;23489;49.600;6.138;2023-07-08T08:07:14;37.70;48.40
37646;DHT22;23489;49.600;6.138;2023-07-08T08:09:40;38.60;47.50
37646;DHT22;23489;49.600;6.138;2023-07-08T08:12:06;39.30;46.50
37646;DHT22;23489;49.600;6.138;2023-07-08T08:14:32;38.00;47.30
37646;DHT22;23489;49.600;6.138;2023-07-08T08:16:58;37.70;47.90
37646;DHT22;23489;49.600;6.138;2023-07-08T08:19:24;38.30;47.20
37646;DHT22;23489;49.600;6.138;2023-07-08T08:25:07;36.70;48.90
37646;DHT22;23489;49.600;6.138;2023-07-08T08:27:33;36.10;49.70
37646;DHT22;23489;49.600;6.138;2023-07-08T08:29:58;36.40;49.50
37646;DHT22;23489;49.600;6.138;2023-07-08T08:32:24;36.20;50.00
37646;DHT22;23489;49.600;6.138;2023-07-08T08:34:50;36.60;49.70
37646;DHT22;23489;49.600;6.138;2023-07-08T08:37:15;36.60;49.40
37646;DHT22;23489;49.600;6.138;2023-07-08T08:39:40;36.80;49.50
37646;DHT22;23489;49.600;6.138;2023-07-08T08:42:09;37.00;49.50
37646;DHT22;23489;49.600;6.138;2023-07-08T08:44:39;37.70;48.80
37646;DHT22;23489;49.600;6.138;2023-07-08T08:47:35;37.70;48.40
37646;DHT22;23489;49.600;6.138;2023-07-08T08:50:25;37.10;49.20
37646;DHT22;23489;49.600;6.138;2023-07-08T08:52:52;37.50;48.80
37646;DHT22;23489;49.600;6.138;2023-07-08T08:55:20;37.40;48.80
37646;DHT22;23489;49.600;6.138;2023-07-08T09:00:57;37.30;49.10
37646;DHT22;23489;49.600;6.138;2023-07-08T09:06:16;37.50;49.10
37646;DHT22;23489;49.600;6.138;2023-07-08T09:08:44;37.30;49.10
37646;DHT22;23489;49.600;6.138;2023-07-08T09:11:21;38.60;48.10
37646;DHT22;23489;49.600;6.138;2023-07-08T09:13:51;39.50;46.90
37646;DHT22;23489;49.600;6.138;2023-07-08T09:16:29;38.90;47.30
37646;DHT22;23489;49.600;6.138;2023-07-08T09:19:09;39.50;46.60
37646;DHT22;23489;49.600;6.138;2023-07-08T09:21:51;39.60;47.00
37646;DHT22;23489;49.600;6.138;2023-07-08T09:29:22;41.20;45.20
37646;DHT22;23489;49.600;6.138;2023-07-08T09:31:48;42.10;44.50
37646;DHT22;23489;49.600;6.138;2023-07-08T09:34:18;42.40;42.90
37646;DHT22;23489;49.600;6.138;2023-07-08T09:36:45;42.40;43.10
37646;DHT22;23489;49.600;6.138;2023-07-08T09:39:12;41.20;43.90
37646;DHT22;23489;49.600;6.138;2023-07-08T09:41:38;40.00;45.30
37646;DHT22;23489;49.600;6.138;2023-07-08T09:44:13;39.50;46.00
37646;DHT22;23489;49.600;6.138;2023-07-08T09:46:39;39.70;46.00
37646;DHT22;23489;49.600;6.138;2023-07-08T09:49:19;40.10;46.10
37646;DHT22;23489;49.600;6.138;2023-07-08T09:51:46;41.00;45.10
37646;DHT22;23489;49.600;6.138;2023-07-08T09:54:11;40.30;45.60
37646;DHT22;23489;49.600;6.138;2023-07-08T09:56:41;40.40;45.90
37646;DHT22;23489;49.600;6.138;2023-07-08T09:59:12;41.00;45.90
37646;DHT22;23489;49.600;6.138;2023-07-08T10:01:40;40.70;46.30
37646;DHT22;23489;49.600;6.138;2023-07-08T10:04:06;40.70;47.00
37646;DHT22;23489;49.600;6.138;2023-07-08T10:06:34;41.80;45.90
37646;DHT22;23489;49.600;6.138;2023-07-08T10:09:11;41.70;45.60
37646;DHT22;23489;49.600;6.138;2023-07-08T10:11:46;41.30;46.00
37646;DHT22;23489;49.600;6.138;2023-07-08T10:14:31;42.50;45.10
37646;DHT22;23489;49.600;6.138;2023-07-08T10:16:57;41.60;45.90
37646;DHT22;23489;49.600;6.138;2023-07-08T10:19:23;42.30;45.90
37646;DHT22;23489;49.600;6.138;2023-07-08T10:24:47;41.70;46.10
37646;DHT22;23489;49.600;6.138;2023-07-08T10:30:17;40.60;47.80
37646;DHT22;23489;49.600;6.138;2023-07-08T10:35:33;42.30;45.80
37646;DHT22;23489;49.600;6.138;2023-07-08T10:40:53;41.90;46.20
37646;DHT22;23489;49.600;6.138;2023-07-08T10:49:30;40.70;47.00
37646;DHT22;23489;49.600;6.138;2023-07-08T10:57:55;37.60;51.10
37646;DHT22;23489;49.600;6.138;2023-07-08T11:00:27;37.50;51.60
37646;DHT22;23489;49.600;6.138;2023-07-08T11:06:08;37.50;51.60
37646;DHT22;23489;49.600;6.138;2023-07-08T11:08:42;37.60;51.30
37646;DHT22;23489;49.600;6.138;2023-07-08T11:11:34;37.50;51.60
37646;DHT22;23489;49.600;6.138;2023-07-08T11:14:18;36.70;52.10
37646;DHT22;23489;49.600;6.138;2023-07-08T11:17:11;36.60;52.90
37646;DHT22;23489;49.600;6.138;2023-07-08T11:19:49;36.50;52.60
37646;DHT22;23489;49.600;6.138;2023-07-08T11:22:17;36.30;53.40
37646;DHT22;23489;49.600;6.138;2023-07-08T11:24:48;36.00;54.20
37646;DHT22;23489;49.600;6.138;2023-07-08T11:27:24;35.70;54.80
37646;DHT22;23489;49.600;6.138;2023-07-08T11:29:56;35.80;54.70
37646;DHT22;23489;49.600;6.138;2023-07-08T11:32:26;35.90;54.30
37646;DHT22;23489;49.600;6.138;2023-07-08T11:34:53;35.70;54.70
37646;DHT22;23489;49.600;6.138;2023-07-08T11:37:21;35.50;54.80
37646;DHT22;23489;49.600;6.138;2023-07-08T11:40:08;35.30;54.60
37646;DHT22;23489;49.600;6.138;2023-07-08T11:42:43;35.00;54.50
37646;DHT22;23489;49.600;6.138;2023-07-08T11:45:27;34.80;54.30
37646;DHT22;23489;49.600;6.138;2023-07-08T11:50:41;33.80;56.80
37646;DHT22;23489;49.600;6.138;2023-07-08T11:53:11;33.10;58.60
37646;DHT22;23489;49.600;6.138;2023-07-08T11:55:44;33.20;58.60
37646;DHT22;23489;49.600;6.138;2023-07-08T12:01:37;34.00;58.40
37646;DHT22;23489;49.600;6.138;2023-07-08T12:09:22;33.40;59.10
37646;DHT22;23489;49.600;6.138;2023-07-08T12:11:55;33.60;59.20
37646;DHT22;23489;49.600;6.138;2023-07-08T12:14:22;33.80;59.30
37646;DHT22;23489;49.600;6.138;2023-07-08T12:16:48;33.90;59.20
37646;DHT22;23489;49.600;6.138;2023-07-08T12:19:17;34.00;59.20
37646;DHT22;23489;49.600;6.138;2023-07-08T12:21:43;33.60;59.20
37646;DHT22;23489;49.600;6.138;2023-07-08T12:24:13;33.40;59.70
37646;DHT22;23489;49.600;6.138;2023-07-08T12:26:40;33.00;60.70
37646;DHT22;23489;49.600;6.138;2023-07-08T12:29:07;32.70;61.80
37646;DHT22;23489;49.600;6.138;2023-07-08T12:31:33;32.80;61.60
37646;DHT22;23489;49.600;6.138;2023-07-08T12:33:59;32.80;61.90
37646;DHT22;23489;49.600;6.138;2023-07-08T12:36:28;33.00;61.50
37646;DHT22;23489;49.600;6.138;2023-07-08T12:38:58;33.00;61.10
37646;DHT22;23489;49.600;6.138;2023-07-08T12:41:32;33.30;60.90
37646;DHT22;23489;49.600;6.138;2023-07-08T12:43:59;33.70;60.60
37646;DHT22;23489;49.600;6.138;2023-07-08T12:46:25;33.60;60.30
37646;DHT22;23489;49.600;6.138;2023-07-08T12:48:52;33.50;60.60
37646;DHT22;23489;49.600;6.138;2023-07-08T12:51:23;33.70;61.10
37646;DHT22;23489;49.600;6.138;2023-07-08T12:53:51;33.50;60.60
37646;DHT22;23489;49.600;6.138;2023-07-08T12:56:17;33.40;62.20
37646;DHT22;23489;49.600;6.138;2023-07-08T12:58:48;33.40;61.30
37646;DHT22;23489;49.600;6.138;2023-07-08T13:01:24;33.60;60.90
37646;DHT22;23489;49.600;6.138;2023-07-08T13:03:54;33.70;61.20
37646;DHT22;23489;49.600;6.138;2023-07-08T13:06:22;34.00;60.80
37646;DHT22;23489;49.600;6.138;2023-07-08T13:08:49;33.50;60.60
37646;DHT22;23489;49.600;6.138;2023-07-08T13:11:17;33.20;61.40
37646;DHT22;23489;49.600;6.138;2023-07-08T13:13:49;33.10;62.00
37646;DHT22;23489;49.600;6.138;2023-07-08T13:16:15;32.90;62.80
37646;DHT22;23489;49.600;6.138;2023-07-08T13:18:42;32.70;62.70
37646;DHT22;23489;49.600;6.138;2023-07-08T13:21:11;32.60;62.90
37646;DHT22;23489;49.600;6.138;2023-07-08T13:23:38;32.40;63.60
37646;DHT22;23489;49.600;6.138;2023-07-08T13:26:15;32.30;64.10
37646;DHT22;23489;49.600;6.138;2023-07-08T13:28:41;32.50;64.80
37646;DHT22;23489;49.600;6.138;2023-07-08T13:31:18;32.80;64.20
37646;DHT22;23489;49.600;6.138;2023-07-08T13:33:53;33.00;63.80
37646;DHT22;23489;49.600;6.138;2023-07-08T13:36:39;33.10;63.70
37646;DHT22;23489;49.600;6.138;2023-07-08T13:39:12;33.00;63.90
37646;DHT22;23489;49.600;6.138;2023-07-08T13:41:43;32.60;65.40
37646;DHT22;23489;49.600;6.138;2023-07-08T13:44:10;32.10;66.70
37646;DHT22;23489;49.600;6.138;2023-07-08T13:46:44;32.20;66.80
37646;DHT22;23489;49.600;6.138;2023-07-08T13:49:26;32.00;66.60
37646;DHT22;23489;49.600;6.138;2023-07-08T13:52:25;32.30;66.30
37646;DHT22;23489;49.600;6.138;2023-07-08T13:54:53;32.00;66.60
37646;DHT22;23489;49.600;6.138;2023-07-08T13:57:22;32.10;67.10
37646;DHT22;23489;49.600;6.138;2023-07-08T13:59:48;32.40;66.10
37646;DHT22;23489;49.600;6.138;2023-07-08T14:02:18;31.80;66.80
37646;DHT22;23489;49.600;6.138;2023-07-08T14:04:45;31.80;66.60
37646;DHT22;23489;49.600;6.138;2023-07-08T14:07:20;32.20;66.70
37646;DHT22;23489;49.600;6.138;2023-07-08T14:09:47;32.70;65.60
37646;DHT22;23489;49.600;6.138;2023-07-08T14:12:12;33.00;64.40
37646;DHT22;23489;49.600;6.138;2023-07-08T14:14:38;33.10;64.10
37646;DHT22;23489;49.600;6.138;2023-07-08T14:17:04;32.70;64.60
37646;DHT22;23489;49.600;6.138;2023-07-08T14:19:32;32.90;64.40
37646;DHT22;23489;49.600;6.138;2023-07-08T14:22:19;33.10;64.00
37646;DHT22;23489;49.600;6.138;2023-07-08T14:24:56;33.30;63.40
37646;DHT22;23489;49.600;6.138;2023-07-08T14:27:23;33.50;63.10
37646;DHT22;23489;49.600;6.138;2023-07-08T14:29:51;33.30;62.70
37646;DHT22;23489;49.600;6.138;2023-07-08T14:32:20;33.00;63.50
37646;DHT22;23489;49.600;6.138;2023-07-08T14:34:55;33.20;63.50
37646;DHT22;23489;49.600;6.138;2023-07-08T14:37:21;33.20;62.80
37646;DHT22;23489;49.600;6.138;2023-07-08T14:39:47;33.10;63.10
37646;DHT22;23489;49.600;6.138;2023-07-08T14:42:15;33.10;63.00
37646;DHT22;23489;49.600;6.138;2023-07-08T14:44:43;33.10;62.70
37646;DHT22;23489;49.600;6.138;2023-07-08T14:47:15;32.20;63.00
37646;DHT22;23489;49.600;6.138;2023-07-08T14:49:41;32.20;63.50
37646;DHT22;23489;49.600;6.138;2023-07-08T14:52:08;32.00;64.10
37646;DHT22;23489;49.600;6.138;2023-07-08T14:54:34;31.90;64.70
37646;DHT22;23489;49.600;6.138;2023-07-08T14:57:00;32.20;64.40
37646;DHT22;23489;49.600;6.138;2023-07-08T14:59:30;32.20;63.80
37646;DHT22;23489;49.600;6.138;2023-07-08T15:01:58;32.20;63.40
37646;DHT22;23489;49.600;6.138;2023-07-08T15:04:24;32.30;63.70
37646;DHT22;23489;49.600;6.138;2023-07-08T15:06:50;32.40;63.40
37646;DHT22;23489;49.600;6.138;2023-07-08T15:09:17;32.30;63.10
37646;DHT22;23489;49.600;6.138;2023-07-08T15:11:44;32.10;63.50
37646;DHT22;23489;49.600;6.138;2023-07-08T15:14:22;32.20;63.80
37646;DHT22;23489;49.600;6.138;2023-07-08T15:16:49;32.20;62.90
37646;DHT22;23489;49.600;6.138;2023-07-08T15:19:16;32.20;62.50
37646;DHT22;23489;49.600;6.138;2023-07-08T15:21:41;32.30;62.00
37646;DHT22;23489;49.600;6.138;2023-07-08T15:24:09;32.10;62.70
37646;DHT22;23489;49.600;6.138;2023-07-08T15:26:37;32.10;62.90
37646;DHT22;23489;49.600;6.138;2023-07-08T15:29:03;31.90;63.00
37646;DHT22;23489;49.600;6.138;2023-07-08T15:31:32;32.00;63.20
37646;DHT22;23489;49.600;6.138;2023-07-08T15:33:58;32.10;63.30
37646;DHT22;23489;49.600;6.138;2023-07-08T15:36:23;32.10;63.00
37646;DHT22;23489;49.600;6.138;2023-07-08T15:38:49;32.20;62.90
37646;DHT22;23489;49.600;6.138;2023-07-08T15:41:21;32.10;62.60
37646;DHT22;23489;49.600;6.138;2023-07-08T15:43:48;32.00;63.00
37646;DHT22;23489;49.600;6.138;2023-07-08T15:46:13;31.90;63.30
37646;DHT22;23489;49.600;6.138;2023-07-08T15:48:39;31.80;63.40
37646;DHT22;23489;49.600;6.138;2023-07-08T15:51:05;31.80;63.20
37646;DHT22;23489;49.600;6.138;2023-07-08T15:53:31;31.70;63.30
37646;DHT22;23489;49.600;6.138;2023-07-08T15:55:57;31.70;63.40
37646;DHT22;23489;49.600;6.138;2023-07-08T15:58:24;31.70;63.30
37646;DHT22;23489;49.600;6.138;2023-07-08T16:00:51;31.60;62.90
37646;DHT22;23489;49.600;6.138;2023-07-08T16:03:23;31.60;63.10
37646;DHT22;23489;49.600;6.138;2023-07-08T16:05:50;31.40;62.60
37646;DHT22;23489;49.600;6.138;2023-07-08T16:08:15;31.10;62.80
37646;DHT22;23489;49.600;6.138;2023-07-08T16:10:41;30.90;63.30
37646;DHT22;23489;49.600;6.138;2023-07-08T16:13:10;30.80;63.60
37646;DHT22;23489;49.600;6.138;2023-07-08T16:15:36;30.90;63.50
37646;DHT22;23489;49.600;6.138;2023-07-08T16:18:04;31.00;63.10
37646;DHT22;23489;49.600;6.138;2023-07-08T16:20:33;31.00;63.10
37646;DHT22;23489;49.600;6.138;2023-07-08T16:22:59;30.90;63.20
37646;DHT22;23489;49.600;6.138;2023-07-08T16:25:31;30.80;63.10
37646;DHT22;23489;49.600;6.138;2023-07-08T16:27:58;30.70;63.50
37646;DHT22;23489;49.600;6.138;2023-07-08T16:30:26;30.80;63.50
37646;DHT22;23489;49.600;6.138;2023-07-08T16:32:52;30.80;62.70
37646;DHT22;23489;49.600;6.138;2023-07-08T16:35:19;31.00;62.80
37646;DHT22;23489;49.600;6.138;2023-07-08T16:37:53;30.70;63.10
37646;DHT22;23489;49.600;6.138;2023-07-08T16:40:22;30.70;63.00